createdAt,value
2023-11-16T00:01:39.215Z,21.20
2023-11-16T00:04:07.710Z,22.42
2023-11-16T00:06:35.346Z,20.27
2023-11-16T00:09:03.051Z,18.98
2023-11-16T00:11:30.954Z,18.38
2023-11-16T00:13:58.576Z,17.25
2023-11-16T00:16:26.591Z,23.30
2023-11-16T00:18:55.554Z,20.20
2023-11-16T00:21:22.931Z,18.83
2023-11-16T00:23:51.214Z,19.75
2023-11-16T00:26:20.595Z,23.63
2023-11-16T00:28:56.444Z,16.30
2023-11-16T00:31:24.863Z,19.88
2023-11-16T00:33:52.446Z,22.20
2023-11-16T00:36:24.565Z,24.42
2023-11-16T00:38:53.006Z,19.50
2023-11-16T00:41:20.565Z,17.02
2023-11-16T00:43:49.468Z,21.58
2023-11-16T00:46:19.674Z,16.92
2023-11-16T00:48:47.353Z,18.25
2023-11-16T00:51:15.743Z,18.38
2023-11-16T00:53:45.951Z,21.50
2023-11-16T00:56:15.198Z,21.50
2023-11-16T00:58:46.212Z,22.52
2023-11-16T01:01:19.383Z,21.85
2023-11-16T01:03:47.612Z,19.73
2023-11-16T01:06:15.006Z,18.48
2023-11-16T01:08:42.616Z,19.83
2023-11-16T01:11:10.553Z,19.63
2023-11-16T01:13:40.741Z,20.40
2023-11-16T01:16:17.477Z,17.63
2023-11-16T01:18:51.632Z,19.38
2023-11-16T01:21:20.980Z,19.40
2023-11-16T01:23:49.665Z,21.55
2023-11-16T01:26:18.513Z,22.45
2023-11-16T01:28:51.014Z,20.40
2023-11-16T01:31:21.065Z,19.90
2023-11-16T01:33:48.961Z,19.33
2023-11-16T01:36:16.488Z,18.48
2023-11-16T01:38:44.466Z,20.90
2023-11-16T01:41:11.731Z,20.30
2023-11-16T01:43:39.220Z,23.42
2023-11-16T01:46:07.572Z,19.88
2023-11-16T01:48:37.783Z,21.42
2023-11-16T01:51:06.903Z,19.77
2023-11-16T01:53:39.303Z,21.05
2023-11-16T01:56:08.813Z,24.00
2023-11-16T01:58:36.847Z,22.00
2023-11-16T02:01:05.694Z,23.92
2023-11-16T02:03:34.643Z,23.10
2023-11-16T02:06:05.340Z,20.20
2023-11-16T02:08:39.145Z,23.48
2023-11-16T02:11:07.285Z,21.83
2023-11-16T02:13:35.601Z,19.77
2023-11-16T02:16:05.803Z,19.80
2023-11-16T02:18:35.153Z,24.00
2023-11-16T02:21:05.095Z,25.23
2023-11-16T02:23:35.602Z,24.15
2023-11-16T02:26:02.956Z,22.25
2023-11-16T02:28:31.842Z,25.25
2023-11-16T02:31:01.491Z,25.80
2023-11-16T02:33:29.221Z,24.35
2023-11-16T02:35:58.990Z,21.60
2023-11-16T02:38:26.686Z,21.60
2023-11-16T02:40:54.074Z,21.48
2023-11-16T02:43:23.253Z,24.63
2023-11-16T02:45:52.526Z,26.83
2023-11-16T02:48:20.125Z,25.52
2023-11-16T02:50:47.531Z,24.50
2023-11-16T02:53:14.886Z,27.80
2023-11-16T02:55:42.158Z,28.20
2023-11-16T02:58:09.616Z,23.55
2023-11-16T03:00:37.193Z,25.70
2023-11-16T03:03:07.096Z,25.08
2023-11-16T03:05:34.682Z,23.60
2023-11-16T03:08:02.394Z,23.85
2023-11-16T03:10:30.340Z,24.88
2023-11-16T03:12:58.190Z,24.35
2023-11-16T03:15:27.607Z,24.23
2023-11-16T03:17:57.886Z,30.02
2023-11-16T03:20:27.625Z,22.30
2023-11-16T03:22:55.200Z,26.13
2023-11-16T03:25:22.680Z,29.85
2023-11-16T03:27:49.979Z,27.10
2023-11-16T03:30:18.081Z,25.08
2023-11-16T03:32:47.171Z,25.02
2023-11-16T03:35:16.898Z,27.98
2023-11-16T03:37:47.432Z,24.90
2023-11-16T03:40:14.837Z,24.35
2023-11-16T03:42:42.724Z,24.70
2023-11-16T03:45:12.858Z,21.88
2023-11-16T03:47:41.572Z,25.33
2023-11-16T03:50:10.493Z,20.83
2023-11-16T03:52:38.034Z,20.88
2023-11-16T03:55:05.836Z,22.42
2023-11-16T03:57:33.951Z,21.55
2023-11-16T04:00:01.376Z,19.67
2023-11-16T04:02:31.870Z,17.92
2023-11-16T04:04:59.804Z,17.85
2023-11-16T04:07:27.395Z,19.05
2023-11-16T04:09:55.323Z,15.93
2023-11-16T04:12:24.474Z,13.90
2023-11-16T04:14:52.342Z,13.18
2023-11-16T04:17:22.644Z,13.30
2023-11-16T04:19:50.829Z,12.98
2023-11-16T04:22:18.186Z,13.38
2023-11-16T04:24:46.053Z,13.73
2023-11-16T04:27:15.444Z,14.13
2023-11-16T04:29:44.166Z,11.25
2023-11-16T04:32:12.958Z,14.80
2023-11-16T04:34:43.518Z,11.85
2023-11-16T04:37:12.234Z,14.68
2023-11-16T04:39:39.692Z,15.57
2023-11-16T04:42:07.272Z,13.07
2023-11-16T04:44:35.931Z,11.82
2023-11-16T04:47:03.786Z,10.98
2023-11-16T04:49:31.139Z,10.50
2023-11-16T04:51:58.996Z,9.32
2023-11-16T04:54:27.891Z,12.55
2023-11-16T04:56:55.288Z,10.52
2023-11-16T04:59:22.712Z,10.70
2023-11-16T05:01:50.154Z,9.82
2023-11-16T05:04:18.251Z,10.43
2023-11-16T05:06:45.870Z,12.02
2023-11-16T05:09:14.499Z,13.40
2023-11-16T05:11:41.750Z,9.35
2023-11-16T05:14:09.278Z,11.80
2023-11-16T05:16:36.936Z,9.60
2023-11-16T05:19:04.409Z,8.77
2023-11-16T05:21:32.175Z,10.90
2023-11-16T05:23:59.480Z,9.13
2023-11-16T05:26:27.193Z,10.55
2023-11-16T05:28:55.134Z,11.18
2023-11-16T05:31:22.907Z,8.88
2023-11-16T05:33:50.751Z,11.05
2023-11-16T05:36:19.845Z,8.00
2023-11-16T05:38:47.171Z,7.38
2023-11-16T05:41:14.880Z,8.90
2023-11-16T05:43:42.724Z,12.32
2023-11-16T05:46:10.246Z,7.95
2023-11-16T05:48:37.601Z,10.48
2023-11-16T05:51:06.228Z,7.72
2023-11-16T05:53:35.180Z,8.07
2023-11-16T05:56:02.586Z,13.45
2023-11-16T05:58:30.256Z,10.85
2023-11-16T06:00:57.754Z,8.63
2023-11-16T06:03:29.290Z,9.77
2023-11-16T06:05:58.753Z,8.50
2023-11-16T06:08:26.214Z,7.57
2023-11-16T06:10:53.847Z,9.40
2023-11-16T06:13:24.061Z,8.45
2023-11-16T06:15:51.610Z,8.05
2023-11-16T06:18:19.258Z,8.07
2023-11-16T06:20:47.030Z,9.85
2023-11-16T06:23:14.700Z,9.80
2023-11-16T06:25:41.921Z,8.95
2023-11-16T06:28:11.831Z,9.45
2023-11-16T06:30:40.571Z,11.80
2023-11-16T06:33:08.250Z,8.32
2023-11-16T06:35:35.666Z,11.77
2023-11-16T06:38:04.544Z,11.35
2023-11-16T06:40:31.788Z,10.85
2023-11-16T06:43:01.422Z,9.77
2023-11-16T06:45:30.714Z,10.45
2023-11-16T06:48:02.156Z,9.15
2023-11-16T06:50:29.919Z,10.80
2023-11-16T06:52:57.258Z,8.75
2023-11-16T06:55:26.593Z,11.50
2023-11-16T06:57:53.857Z,9.13
2023-11-16T07:00:23.204Z,10.40
2023-11-16T07:02:50.826Z,8.35
2023-11-16T07:05:18.283Z,10.95
2023-11-16T07:07:47.009Z,8.18
2023-11-16T07:10:17.357Z,8.25
2023-11-16T07:12:47.369Z,5.78
2023-11-16T07:15:16.495Z,5.25
2023-11-16T07:17:44.933Z,6.18
2023-11-16T07:20:13.210Z,6.05
2023-11-16T07:22:45.490Z,4.70
2023-11-16T07:25:15.126Z,7.38
2023-11-16T07:27:42.754Z,5.53
2023-11-16T07:30:11.546Z,6.45
2023-11-16T07:32:39.247Z,5.25
2023-11-16T07:35:16.898Z,6.25
2023-11-16T07:37:48.812Z,5.90
2023-11-16T07:40:19.520Z,5.35
2023-11-16T07:42:48.486Z,4.85
2023-11-16T07:45:16.938Z,5.03
2023-11-16T07:47:46.696Z,4.18
2023-11-16T07:50:15.148Z,4.18
2023-11-16T07:52:44.981Z,6.10
2023-11-16T07:55:18.375Z,4.63
2023-11-16T07:57:50.245Z,5.45
2023-11-16T08:03:22.196Z,7.60
2023-11-16T08:05:52.299Z,5.97
2023-11-16T08:08:22.190Z,5.43
2023-11-16T08:10:51.222Z,4.22
2023-11-16T08:13:20.004Z,5.40
2023-11-16T08:15:55.276Z,6.18
2023-11-16T08:18:23.646Z,6.30
2023-11-16T08:20:50.909Z,5.97
2023-11-16T08:23:19.546Z,7.15
2023-11-16T08:25:49.446Z,7.80
2023-11-16T08:28:18.408Z,10.43
2023-11-16T08:30:46.890Z,8.48
2023-11-16T08:33:16.290Z,14.38
2023-11-16T08:35:43.552Z,12.45
2023-11-16T08:38:15.848Z,11.43
2023-11-16T08:40:44.839Z,14.13
2023-11-16T08:43:12.597Z,16.20
2023-11-16T08:45:43.649Z,15.45
2023-11-16T08:50:44.397Z,18.33
2023-11-16T08:53:14.622Z,15.48
2023-11-16T08:55:42.477Z,20.23
2023-11-16T08:58:10.200Z,24.95
2023-11-16T09:00:39.575Z,24.58
2023-11-16T09:03:09.789Z,23.33
2023-11-16T09:05:40.943Z,24.08
2023-11-16T09:08:13.667Z,26.35
2023-11-16T09:10:43.593Z,28.90
2023-11-16T09:13:14.095Z,25.58
2023-11-16T09:15:42.794Z,25.20
2023-11-16T09:18:13.104Z,15.90
2023-11-16T09:20:47.744Z,18.50
2023-11-16T09:23:16.385Z,16.13
2023-11-16T09:25:44.773Z,16.10
2023-11-16T09:28:15.356Z,10.52
2023-11-16T09:30:45.113Z,11.13
2023-11-16T09:33:13.973Z,10.73
2023-11-16T09:35:51.531Z,13.30
2023-11-16T09:38:20.095Z,8.30
2023-11-16T09:40:48.776Z,12.68
2023-11-16T09:43:19.509Z,9.07
2023-11-16T09:45:49.664Z,12.90
2023-11-16T09:48:19.073Z,13.52
2023-11-16T09:50:46.877Z,10.63
2023-11-16T09:53:15.780Z,13.82
2023-11-16T09:55:51.515Z,10.63
2023-11-16T09:58:25.287Z,10.45
2023-11-16T10:01:06.458Z,11.40
2023-11-16T10:03:38.431Z,9.48
2023-11-16T10:06:11.690Z,11.40
2023-11-16T10:08:43.220Z,11.65
2023-11-16T10:11:10.877Z,12.23
2023-11-16T10:13:38.903Z,15.43
2023-11-16T10:16:11.653Z,10.20
2023-11-16T10:18:41.460Z,9.82
2023-11-16T10:21:10.385Z,13.02
2023-11-16T10:23:38.505Z,15.38
2023-11-16T10:26:08.148Z,15.60
2023-11-16T10:28:36.314Z,13.82
2023-11-16T10:31:04.964Z,14.15
2023-11-16T10:33:33.034Z,12.80
2023-11-16T10:36:03.499Z,16.00
2023-11-16T10:38:34.230Z,14.82
2023-11-16T10:41:04.571Z,12.38
2023-11-16T10:43:32.119Z,12.27
2023-11-16T10:46:01.746Z,14.88
2023-11-16T10:48:30.336Z,14.73
2023-11-16T10:51:01.669Z,13.77
2023-11-16T10:53:39.664Z,15.65
2023-11-16T10:56:13.183Z,14.60
2023-11-16T10:58:44.651Z,16.30
2023-11-16T11:01:19.009Z,15.05
2023-11-16T11:03:50.200Z,13.90
2023-11-16T11:08:50.668Z,18.38
2023-11-16T11:11:28.865Z,14.50
2023-11-16T11:14:00.961Z,14.77
2023-11-16T11:16:29.886Z,18.95
2023-11-16T11:18:59.571Z,15.50
2023-11-16T11:21:32.387Z,13.60
2023-11-16T11:24:08.089Z,15.32
2023-11-16T11:26:41.040Z,18.45
2023-11-16T11:29:12.174Z,14.75
2023-11-16T11:31:48.669Z,12.30
2023-11-16T11:34:17.057Z,13.73
2023-11-16T11:36:45.885Z,12.98
2023-11-16T11:39:16.488Z,13.90
2023-11-16T11:42:01.154Z,12.02
2023-11-16T11:44:30.278Z,7.63
2023-11-16T11:46:58.554Z,9.10
2023-11-16T11:49:26.999Z,10.13
2023-11-16T11:51:55.373Z,12.13
2023-11-16T11:54:35.318Z,9.95
2023-11-16T11:57:06.812Z,10.07
2023-11-16T11:59:37.818Z,12.00
2023-11-16T12:02:08.897Z,8.75
2023-11-16T12:04:38.880Z,11.52
2023-11-16T12:07:10.132Z,9.95
2023-11-16T12:09:39.900Z,11.63
2023-11-16T12:12:09.554Z,13.85
2023-11-16T12:14:49.707Z,7.57
2023-11-16T12:17:22.881Z,13.85
2023-11-16T12:19:55.775Z,12.52
2023-11-16T12:22:30.945Z,12.07
2023-11-16T12:25:05.453Z,14.18
2023-11-16T12:27:41.519Z,22.08
2023-11-16T12:30:22.725Z,20.58
2023-11-16T12:32:52.735Z,16.10
2023-11-16T12:35:24.159Z,14.30
2023-11-16T12:37:56.368Z,14.15
2023-11-16T12:40:24.717Z,17.85
2023-11-16T12:42:57.306Z,9.73
2023-11-16T12:45:31.320Z,17.85
2023-11-16T12:48:03.034Z,15.68
2023-11-16T12:50:44.784Z,14.50
2023-11-16T12:53:15.283Z,13.55
2023-11-16T12:55:47.290Z,12.38
2023-11-16T12:58:17.601Z,9.27
2023-11-16T13:00:46.709Z,10.55
2023-11-16T13:03:18.136Z,8.85
2023-11-16T13:05:47.729Z,10.07
2023-11-16T13:08:24.535Z,9.90
2023-11-16T13:10:54.525Z,6.78
2023-11-16T13:13:25.853Z,6.95
2023-11-16T13:16:00.899Z,6.30
2023-11-16T13:18:32.390Z,9.68
2023-11-16T13:21:07.194Z,7.43
2023-11-16T13:23:48.176Z,8.75
2023-11-16T13:26:17.390Z,6.82
2023-11-16T13:28:48.140Z,5.68
2023-11-16T13:33:53.310Z,9.00
2023-11-16T13:36:24.345Z,9.85
2023-11-16T13:39:00.015Z,7.15
2023-11-16T13:41:32.164Z,6.15
2023-11-16T13:44:06.790Z,6.05
2023-11-16T13:46:39.022Z,7.60
2023-11-16T13:49:13.436Z,16.27
2023-11-16T13:51:41.937Z,6.85
2023-11-16T13:54:11.004Z,4.75
2023-11-16T13:56:41.110Z,5.82
2023-11-16T13:59:11.892Z,6.85
2023-11-16T14:04:18.724Z,6.22
2023-11-16T14:06:49.129Z,8.82
2023-11-16T14:09:24.818Z,6.22
2023-11-16T14:11:54.900Z,7.38
2023-11-16T14:14:25.943Z,6.50
2023-11-16T14:17:02.566Z,6.93
2023-11-16T14:19:33.070Z,8.63
2023-11-16T14:22:02.602Z,7.40
2023-11-16T14:24:32.174Z,5.28
2023-11-16T14:27:04.174Z,7.50
2023-11-16T14:29:34.573Z,5.68
2023-11-16T14:32:11.179Z,4.85
2023-11-16T14:34:44.837Z,8.30
2023-11-16T14:37:17.162Z,6.30
2023-11-16T14:39:46.649Z,6.80
2023-11-16T14:42:15.031Z,5.50
2023-11-16T14:44:48.101Z,7.93
2023-11-16T14:47:32.468Z,7.18
2023-11-16T14:50:16.072Z,5.63
2023-11-16T14:52:45.635Z,5.40
2023-11-16T14:55:19.673Z,6.40
2023-11-16T14:57:48.922Z,6.65
2023-11-16T15:00:19.993Z,5.53
2023-11-16T15:02:48.140Z,5.85
2023-11-16T15:05:31.220Z,6.38
2023-11-16T15:08:05.101Z,5.15
2023-11-16T15:10:38.748Z,9.25
2023-11-16T15:13:08.110Z,7.45
2023-11-16T15:15:37.024Z,7.72
2023-11-16T15:18:06.701Z,8.65
2023-11-16T15:20:38.931Z,7.18
2023-11-16T15:23:10.435Z,7.57
2023-11-16T15:25:44.498Z,6.53
2023-11-16T15:28:14.051Z,8.18
2023-11-16T15:30:42.589Z,4.47
2023-11-16T15:33:13.823Z,5.22
2023-11-16T15:35:49.336Z,5.43
2023-11-16T15:38:23.801Z,6.95
2023-11-16T15:43:39.820Z,6.47
2023-11-16T15:46:20.351Z,4.30
2023-11-16T15:48:53.653Z,6.35
2023-11-16T15:51:30.128Z,5.97
2023-11-16T15:54:00.703Z,6.38
2023-11-16T15:56:34.814Z,8.35
2023-11-16T15:59:06.992Z,6.38
2023-11-16T16:01:37.622Z,8.85
2023-11-16T16:04:13.283Z,4.55
2023-11-16T16:06:45.652Z,6.85
2023-11-16T16:09:25.910Z,4.65
2023-11-16T16:11:56.613Z,5.03
2023-11-16T16:16:55.276Z,5.07
2023-11-16T16:19:35.324Z,3.50
2023-11-16T16:22:05.577Z,5.03
2023-11-16T16:24:37.391Z,5.70
2023-11-16T16:27:09.595Z,4.00
2023-11-16T16:29:43.350Z,5.63
2023-11-16T16:32:15.171Z,3.17
2023-11-16T16:34:51.949Z,4.18
2023-11-16T16:37:24.038Z,2.95
2023-11-16T16:39:55.763Z,2.60
2023-11-16T16:42:29.077Z,5.63
2023-11-16T16:44:59.797Z,3.75
2023-11-16T16:47:29.392Z,5.18
2023-11-16T16:49:59.662Z,4.18
2023-11-16T16:52:31.930Z,5.28
2023-11-16T16:55:03.248Z,3.05
2023-11-16T16:57:32.360Z,3.75
2023-11-16T17:00:01.525Z,4.50
2023-11-16T17:02:39.149Z,3.72
2023-11-16T17:05:10.271Z,3.47
2023-11-16T17:07:39.925Z,4.43
2023-11-16T17:10:11.847Z,3.83
2023-11-16T17:15:23.437Z,7.78
2023-11-16T17:17:55.092Z,5.43
2023-11-16T17:20:29.037Z,3.72
2023-11-16T17:22:59.475Z,3.33
2023-11-16T17:25:33.519Z,4.50
2023-11-16T17:28:02.687Z,5.28
2023-11-16T17:30:33.245Z,4.65
2023-11-16T17:33:03.918Z,4.68
2023-11-16T17:35:32.586Z,3.90
2023-11-16T17:38:01.485Z,5.55
2023-11-16T17:40:33.560Z,8.38
2023-11-16T17:43:03.313Z,5.38
2023-11-16T17:48:08.944Z,5.38
2023-11-16T17:50:38.655Z,6.85
2023-11-16T17:53:10.873Z,6.30
2023-11-16T17:55:40.048Z,4.53
2023-11-16T17:58:09.514Z,7.18
2023-11-16T18:00:41.875Z,5.00
2023-11-16T18:03:11.740Z,4.18
2023-11-16T18:05:42.174Z,5.47
2023-11-16T18:08:11.512Z,6.30
2023-11-16T18:10:46.131Z,4.57
2023-11-16T18:13:18.994Z,4.60
2023-11-16T18:15:49.747Z,7.53
2023-11-16T18:18:23.055Z,4.35
2023-11-16T18:20:53.758Z,5.05
2023-11-16T18:23:24.780Z,4.93
2023-11-16T18:25:57.550Z,5.47
2023-11-16T18:28:28.720Z,4.05
2023-11-16T18:31:01.525Z,4.15
2023-11-16T18:33:30.829Z,4.80
2023-11-16T18:36:01.762Z,6.63
2023-11-16T18:38:32.761Z,4.93
2023-11-16T18:41:02.893Z,4.88
2023-11-16T18:43:37.910Z,4.30
2023-11-16T18:46:09.220Z,4.78
2023-11-16T18:48:47.565Z,5.40
2023-11-16T18:51:16.455Z,4.53
2023-11-16T18:53:44.822Z,7.47
2023-11-16T18:56:15.553Z,6.25
2023-11-16T18:58:53.014Z,4.57
2023-11-16T19:01:23.423Z,6.90
2023-11-16T19:03:55.637Z,6.38
2023-11-16T19:06:24.184Z,5.88
2023-11-16T19:08:54.693Z,4.93
2023-11-16T19:11:23.298Z,5.60
2023-11-16T19:13:55.552Z,5.53
2023-11-16T19:16:24.253Z,6.95
2023-11-16T19:18:52.624Z,6.05
2023-11-16T19:21:23.453Z,7.97
2023-11-16T19:24:13.801Z,5.70
2023-11-16T19:27:18.525Z,6.25
2023-11-16T19:31:00.797Z,5.22
2023-11-16T19:34:05.363Z,4.65
2023-11-16T19:37:28.328Z,5.10
2023-11-16T19:40:39.078Z,4.28
2023-11-16T19:43:45.025Z,4.47
2023-11-16T19:46:17.524Z,4.78
2023-11-16T19:49:22.426Z,3.45
2023-11-16T19:52:26.921Z,3.17
2023-11-16T19:55:15.395Z,4.22
2023-11-16T19:58:01.698Z,3.47
2023-11-16T20:01:06.466Z,4.53
2023-11-16T20:04:49.674Z,3.83
2023-11-16T20:07:35.786Z,4.88
2023-11-16T20:10:42.090Z,3.95
2023-11-16T20:13:28.270Z,3.05
2023-11-16T20:15:58.546Z,3.05
2023-11-16T20:18:28.203Z,3.95
2023-11-16T20:20:59.763Z,3.50
2023-11-16T20:23:29.217Z,3.05
2023-11-16T20:25:56.751Z,3.63
2023-11-16T20:28:25.394Z,3.33
2023-11-16T20:30:53.962Z,2.78
2023-11-16T20:33:21.844Z,2.60
2023-11-16T20:35:49.549Z,2.42
2023-11-16T20:38:17.097Z,3.50
2023-11-16T20:40:44.619Z,3.13
2023-11-16T20:43:12.575Z,3.10
2023-11-16T20:45:40.059Z,4.05
2023-11-16T20:48:09.399Z,3.30
2023-11-16T20:50:36.902Z,3.42
2023-11-16T20:53:06.577Z,3.28
2023-11-16T20:55:34.090Z,4.03
2023-11-16T20:58:01.510Z,2.50
2023-11-16T21:00:29.139Z,2.88
2023-11-16T21:02:56.880Z,3.05
2023-11-16T21:05:25.046Z,3.25
2023-11-16T21:07:54.975Z,3.10
2023-11-16T21:10:23.274Z,2.78
2023-11-16T21:12:50.757Z,2.38
2023-11-16T21:15:20.498Z,3.33
2023-11-16T21:17:48.320Z,2.42
2023-11-16T21:20:17.622Z,2.45
2023-11-16T21:22:45.349Z,2.28
2023-11-16T21:25:13.593Z,3.22
2023-11-16T21:27:42.033Z,6.20
2023-11-16T21:30:13.741Z,2.08
2023-11-16T21:32:43.199Z,2.28
2023-11-16T21:35:17.510Z,2.13
2023-11-16T21:37:50.843Z,4.57
2023-11-16T21:40:21.465Z,2.65
2023-11-16T21:42:49.239Z,2.00
2023-11-16T21:45:16.765Z,2.75
2023-11-16T21:47:46.601Z,3.38
2023-11-16T21:50:16.350Z,2.58
2023-11-16T21:52:43.722Z,2.88
2023-11-16T21:55:11.506Z,3.85
2023-11-16T21:57:38.944Z,3.13
2023-11-16T22:00:08.425Z,2.55
2023-11-16T22:02:39.217Z,4.60
2023-11-16T22:05:13.324Z,2.72
2023-11-16T22:07:43.437Z,2.88
2023-11-16T22:10:13.206Z,2.60
2023-11-16T22:12:40.773Z,3.00
2023-11-16T22:15:11.160Z,2.67
2023-11-16T22:17:46.104Z,1.88
2023-11-16T22:20:18.316Z,2.63
2023-11-16T22:22:47.996Z,2.25
2023-11-16T22:25:17.007Z,2.30
2023-11-16T22:27:46.241Z,2.97
2023-11-16T22:30:19.116Z,2.15
2023-11-16T22:32:47.250Z,2.17
2023-11-16T22:35:15.704Z,2.90
2023-11-16T22:37:43.953Z,2.33
2023-11-16T22:40:12.156Z,3.17
2023-11-16T22:42:39.891Z,2.42
2023-11-16T22:45:11.508Z,2.50
2023-11-16T22:47:39.288Z,3.47
2023-11-16T22:50:10.636Z,2.60
2023-11-16T22:52:39.605Z,2.97
2023-11-16T22:55:13.870Z,3.17
2023-11-16T22:57:42.886Z,3.08
2023-11-16T23:00:32.517Z,2.78
2023-11-16T23:03:00.346Z,2.65
2023-11-16T23:05:27.951Z,2.70
2023-11-16T23:07:59.507Z,3.65
2023-11-16T23:10:26.966Z,3.30
2023-11-16T23:12:54.454Z,2.65
2023-11-16T23:15:22.910Z,2.70
2023-11-16T23:17:54.860Z,2.97
2023-11-16T23:20:34.873Z,2.10
2023-11-16T23:23:03.750Z,3.58
2023-11-16T23:25:31.758Z,3.42
2023-11-16T23:28:02.734Z,3.17
2023-11-16T23:30:30.162Z,2.40
2023-11-16T23:32:57.542Z,2.00
2023-11-16T23:35:25.121Z,2.42
2023-11-16T23:37:52.662Z,2.78
2023-11-16T23:40:20.357Z,1.90
2023-11-16T23:42:50.202Z,2.80
2023-11-16T23:45:19.079Z,2.25
2023-11-16T23:47:48.382Z,2.50
2023-11-16T23:50:15.978Z,2.72
2023-11-16T23:52:43.287Z,2.28
2023-11-16T23:55:10.970Z,2.70
2023-11-16T23:57:38.759Z,2.70
